Time;durP1;ratioP1;P1;durP2;ratioP2;P2;SDS_P1;SDS_P2;PMS_P1;PMS_P2;Temp;Humidity;BMP_temperature;BMP_pressure;BME280_temperature;BME280_humidity;BME280_pressure;Samples;Min_cycle;Max_cycle;Signal;HPM_P1;HPM_P2
2021/12/28 00:00:26;;;;;;;11.85;2.58;;;5.80;99.90;;;;;;6284331;22;20114;-85
2021/12/28 00:03:14;;;;;;;7.03;2.22;;;5.80;99.90;;;;;;6284056;22;20034;-83
2021/12/28 00:06:03;;;;;;;11.68;2.58;;;5.80;99.90;;;;;;6306623;22;20019;-84
2021/12/28 00:08:52;;;;;;;10.35;2.20;;;5.80;99.90;;;;;;6283263;22;20275;-83
2021/12/28 00:11:40;;;;;;;45.60;16.67;;;5.80;99.90;;;;;;6284746;22;20031;-84
2021/12/28 00:14:35;;;;;;;14.38;4.93;;;5.90;99.90;;;;;;6284416;22;20124;-86
2021/12/28 00:20:39;;;;;;;11.48;1.98;;;6.00;99.90;;;;;;6305906;22;20055;-84
2021/12/28 00:23:31;;;;;;;12.75;2.30;;;6.00;99.90;;;;;;6262173;22;20350;-83
2021/12/28 00:26:20;;;;;;;;;;;6.10;99.90;;;;;;6281992;22;20034;-85
2021/12/28 00:29:07;;;;;;;14.18;2.45;;;6.10;99.90;;;;;;6307454;22;19923;-84
2021/12/28 00:31:55;;;;;;;15.43;2.78;;;6.10;99.90;;;;;;6303178;22;20321;-85
2021/12/28 00:34:45;;;;;;;16.63;3.10;;;6.10;99.90;;;;;;6306396;22;20038;-85
2021/12/28 00:37:32;;;;;;;11.40;2.60;;;6.10;99.90;;;;;;6241968;22;20034;-84
2021/12/28 00:40:22;;;;;;;13.05;2.30;;;5.90;99.90;;;;;;6306458;22;20638;-85
2021/12/28 00:43:11;;;;;;;19.45;2.80;;;5.80;99.90;;;;;;6289487;22;20031;-84
2021/12/28 00:45:59;;;;;;;21.73;3.10;;;5.80;99.90;;;;;;6290010;22;20039;-84
2021/12/28 00:48:47;;;;;;;17.10;2.78;;;5.80;99.90;;;;;;6311118;22;20042;-83
2021/12/28 00:51:39;;;;;;;20.27;3.55;;;5.90;99.90;;;;;;6307294;22;20030;-86
2021/12/28 00:54:26;;;;;;;16.90;3.15;;;6.00;99.90;;;;;;6251628;22;20046;-83
2021/12/28 00:57:15;;;;;;;16.90;3.05;;;6.00;99.90;;;;;;6271242;22;20051;-83
2021/12/28 01:00:07;;;;;;;12.00;2.55;;;6.10;99.90;;;;;;6272704;22;20027;-82
2021/12/28 01:02:56;;;;;;;16.48;2.83;;;6.10;99.90;;;;;;6299075;22;20027;-83
2021/12/28 01:05:51;;;;;;;25.50;3.58;;;6.10;99.90;;;;;;6289014;22;20023;-82
2021/12/28 01:08:41;;;;;;;21.58;3.20;;;6.10;99.90;;;;;;6266361;22;20023;-83
2021/12/28 01:11:28;;;;;;;24.13;3.85;;;6.10;99.90;;;;;;6266734;22;20023;-83
2021/12/28 01:14:16;;;;;;;17.35;2.85;;;6.10;99.90;;;;;;6267994;22;20051;-83
2021/12/28 01:17:04;;;;;;;18.42;3.13;;;6.00;99.90;;;;;;6263395;22;20115;-84
2021/12/28 01:19:54;;;;;;;16.63;2.80;;;6.00;99.90;;;;;;6283507;22;20403;-85
2021/12/28 01:22:44;;;;;;;14.50;3.15;;;5.90;99.90;;;;;;6263684;22;20027;-85
2021/12/28 01:25:33;;;;;;;19.38;2.78;;;5.90;99.90;;;;;;6283060;22;20042;-86
2021/12/28 01:28:20;;;;;;;18.65;2.45;;;5.80;99.90;;;;;;6282875;22;20073;-85
2021/12/28 01:31:19;;;;;;;14.23;2.90;;;5.70;99.90;;;;;;6265672;22;20027;-87
2021/12/28 01:34:30;;;;;;;14.18;2.90;;;5.60;99.90;;;;;;6216352;23;20096;-85
2021/12/28 01:37:20;;;;;;;11.07;2.53;;;5.50;99.90;;;;;;6193765;23;20061;-86
2021/12/28 01:40:11;;;;;;;26.40;3.53;;;5.50;99.90;;;;;;6197449;23;20033;-85
2021/12/28 01:43:01;;;;;;;22.60;3.08;;;5.40;99.90;;;;;;6193039;22;20047;-83
2021/12/28 01:45:54;;;;;;;21.83;3.92;;;5.30;99.90;;;;;;6214860;23;20324;-83
2021/12/28 01:48:42;;;;;;;21.20;3.30;;;5.20;99.90;;;;;;6191673;23;20024;-87
2021/12/28 01:51:32;;;;;;;18.67;3.45;;;5.20;99.90;;;;;;6193080;23;20146;-86
2021/12/28 01:54:21;;;;;;;23.88;3.88;;;5.20;99.90;;;;;;6171375;23;20031;-87
2021/12/28 01:57:09;;;;;;;16.02;3.53;;;5.10;99.90;;;;;;6193629;23;20090;-86
2021/12/28 01:59:59;;;;;;;14.90;2.78;;;5.10;99.90;;;;;;6193480;23;20036;-86
2021/12/28 02:02:49;;;;;;;21.73;3.28;;;5.10;99.90;;;;;;6172246;23;20420;-85
2021/12/28 02:05:40;;;;;;;22.15;3.60;;;5.10;99.90;;;;;;6257304;22;20019;-85
2021/12/28 02:08:28;;;;;;;17.63;3.35;;;5.00;99.90;;;;;;6282075;22;20051;-85
2021/12/28 02:11:16;;;;;;;14.32;3.72;;;5.10;99.90;;;;;;6306180;22;20023;-86
2021/12/28 02:14:06;;;;;;;21.67;4.22;;;5.10;99.90;;;;;;6262272;22;20023;-86
2021/12/28 02:16:54;;;;;;;17.52;3.35;;;5.10;99.90;;;;;;6283554;22;20019;-84
2021/12/28 02:19:42;;;;;;;20.10;3.20;;;5.10;99.90;;;;;;6282880;22;20019;-85
2021/12/28 02:22:31;;;;;;;20.30;3.35;;;5.10;99.90;;;;;;6305449;22;20030;-86
2021/12/28 02:25:21;;;;;;;16.77;4.03;;;5.10;99.90;;;;;;6305198;22;20464;-86
2021/12/28 02:28:13;;;;;;;19.45;3.33;;;5.00;99.90;;;;;;6242432;22;20041;-84
2021/12/28 02:31:04;;;;;;;22.25;3.80;;;5.10;99.90;;;;;;6307932;22;20077;-85
2021/12/28 02:33:52;;;;;;;35.42;4.97;;;5.10;99.90;;;;;;6283739;22;20091;-86
2021/12/28 02:36:39;;;;;;;26.20;3.88;;;5.20;99.90;;;;;;6304488;22;20023;-84
2021/12/28 02:39:26;;;;;;;25.98;4.47;;;5.40;99.90;;;;;;6285210;22;20046;-85
2021/12/28 02:42:19;;;;;;;25.70;3.80;;;5.40;99.90;;;;;;6305713;22;20034;-86
2021/12/28 02:45:13;;;;;;;23.15;2.88;;;5.60;99.90;;;;;;6284725;22;20038;-84
2021/12/28 02:48:03;;;;;;;15.50;2.83;;;5.60;99.90;;;;;;6283054;22;20038;-86
2021/12/28 02:50:57;;;;;;;22.33;3.60;;;5.70;99.90;;;;;;6283581;22;20026;-85
2021/12/28 02:53:48;;;;;;;17.23;2.92;;;5.70;99.90;;;;;;6283881;22;20436;-86
2021/12/28 02:56:35;;;;;;;15.95;3.35;;;5.70;99.90;;;;;;6282522;22;20061;-85
2021/12/28 02:59:25;;;;;;;16.00;2.80;;;5.80;99.90;;;;;;6306321;22;20058;-86
2021/12/28 03:02:17;;;;;;;19.65;2.97;;;5.80;99.90;;;;;;6304262;22;20418;-86
2021/12/28 03:05:05;;;;;;;22.77;3.23;;;5.80;99.90;;;;;;6304139;22;20166;-87
2021/12/28 03:07:53;;;;;;;14.93;2.90;;;5.80;99.90;;;;;;6305192;22;20238;-85
2021/12/28 03:10:45;;;;;;;14.38;2.80;;;5.70;99.90;;;;;;6262757;22;20323;-87
2021/12/28 03:13:45;;;;;;;17.73;2.85;;;5.70;99.90;;;;;;6282234;22;20026;-87
2021/12/28 03:16:35;;;;;;;20.33;3.10;;;5.50;99.90;;;;;;6284640;22;20024;-87
2021/12/28 03:19:23;;;;;;;17.48;2.90;;;5.50;99.90;;;;;;6282737;22;20098;-87
2021/12/28 03:22:13;;;;;;;18.48;3.60;;;5.40;99.90;;;;;;6265412;22;20053;-86
2021/12/28 03:25:00;;;;;;;24.10;3.25;;;5.40;99.90;;;;;;6282573;22;20023;-86
2021/12/28 03:27:55;;;;;;;13.15;2.67;;;5.40;99.90;;;;;;6303712;22;20407;-85
2021/12/28 03:30:43;;;;;;;16.30;2.43;;;5.40;99.90;;;;;;6263246;22;20023;-86
2021/12/28 03:33:33;;;;;;;16.88;2.58;;;5.40;99.90;;;;;;6282645;22;20406;-85
2021/12/28 03:36:23;;;;;;;15.77;2.88;;;5.50;99.90;;;;;;6305138;22;20034;-87
2021/12/28 03:39:19;;;;;;;15.77;2.40;;;5.60;99.90;;;;;;6304277;22;20033;-83
2021/12/28 03:42:08;;;;;;;19.10;3.10;;;5.80;99.90;;;;;;6303816;22;20027;-82
2021/12/28 03:44:58;;;;;;;15.02;2.83;;;5.90;99.90;;;;;;6283259;22;20015;-86
2021/12/28 03:47:45;;;;;;;10.88;2.20;;;6.00;99.90;;;;;;6303313;22;20026;-83
2021/12/28 03:50:43;;;;;;;16.83;2.35;;;6.10;99.90;;;;;;6283775;22;20095;-86
2021/12/28 03:53:33;;;;;;;14.52;2.88;;;6.20;99.90;;;;;;6241638;22;20023;-84
2021/12/28 03:56:23;;;;;;;15.82;2.05;;;6.20;99.90;;;;;;6261238;22;20023;-83
2021/12/28 03:59:11;;;;;;;14.15;2.40;;;6.20;99.90;;;;;;6281037;22;20027;-84
2021/12/28 04:02:00;;;;;;;12.38;2.83;;;6.30;99.90;;;;;;6242736;22;20356;-85
2021/12/28 04:04:50;;;;;;;10.20;2.00;;;6.30;99.90;;;;;;6259604;22;20547;-85
2021/12/28 04:07:39;;;;;;;8.90;2.03;;;6.40;99.90;;;;;;6302117;22;20429;-83
2021/12/28 04:10:32;;;;;;;8.52;2.03;;;6.40;99.90;;;;;;6282812;22;20456;-83
2021/12/28 04:13:27;;;;;;;8.88;1.80;;;6.40;99.90;;;;;;6301505;22;20038;-85
2021/12/28 04:16:17;;;;;;;9.43;2.10;;;6.40;99.90;;;;;;6262294;22;20109;-82
2021/12/28 04:19:05;;;;;;;6.93;2.03;;;6.40;99.90;;;;;;6307723;22;20027;-82
2021/12/28 04:21:56;;;;;;;12.32;2.40;;;6.40;99.90;;;;;;6261348;22;20023;-83
2021/12/28 04:24:50;;;;;;;9.32;1.83;;;6.40;99.90;;;;;;6306572;22;20403;-83
2021/12/28 04:27:45;;;;;;;8.60;2.20;;;6.50;99.90;;;;;;6282559;22;20035;-85
2021/12/28 04:30:34;;;;;;;9.43;1.50;;;6.60;99.90;;;;;;6304630;22;20260;-83
2021/12/28 04:33:24;;;;;;;13.32;2.67;;;6.70;99.90;;;;;;6242323;22;20340;-83
2021/12/28 04:36:15;;;;;;;4.93;1.52;;;6.70;99.90;;;;;;6286077;22;20138;-86
2021/12/28 04:39:06;;;;;;;9.43;2.10;;;6.80;99.90;;;;;;6261263;22;20027;-85
2021/12/28 04:41:59;;;;;;;5.03;1.33;;;6.80;99.90;;;;;;6282394;22;20027;-87
2021/12/28 04:44:50;;;;;;;10.40;1.30;;;6.90;99.90;;;;;;6243173;22;20023;-85
2021/12/28 04:47:39;;;;;;;5.25;1.40;;;6.90;99.90;;;;;;6243920;22;20446;-84
2021/12/28 04:50:39;;;;;;;8.48;2.05;;;6.80;99.90;;;;;;6303572;22;20023;-86
2021/12/28 04:53:31;;;;;;;3.92;1.38;;;6.80;99.90;;;;;;6282283;22;20419;-86
2021/12/28 04:56:22;;;;;;;6.35;1.80;;;6.80;99.90;;;;;;6262401;22;20035;-86
2021/12/28 04:59:14;;;;;;;7.85;1.50;;;6.80;99.90;;;;;;6264125;22;20141;-84
2021/12/28 05:02:08;;;;;;;5.18;1.48;;;6.80;99.90;;;;;;6282589;22;20092;-85
2021/12/28 05:05:43;;;;;;;4.50;1.50;;;6.80;99.90;;;;;;6294319;22;20393;-86
2021/12/28 05:08:30;;;;;;;7.22;1.67;;;6.80;99.90;;;;;;6284216;22;20058;-84
2021/12/28 05:11:20;;;;;;;5.72;1.38;;;6.80;99.90;;;;;;6242731;22;20088;-85
2021/12/28 05:14:09;;;;;;;6.35;1.58;;;6.80;99.90;;;;;;6241321;22;20023;-84
2021/12/28 05:17:00;;;;;;;9.38;1.92;;;6.70;99.90;;;;;;6262845;22;20035;-83
2021/12/28 05:19:47;;;;;;;5.43;1.45;;;6.70;99.90;;;;;;6242076;22;20031;-84
2021/12/28 05:22:37;;;;;;;9.27;1.77;;;6.70;99.90;;;;;;6262994;22;20046;-84
2021/12/28 05:25:25;;;;;;;7.60;1.73;;;6.70;99.90;;;;;;6304140;22;20027;-83
2021/12/28 05:28:12;;;;;;;8.23;1.55;;;6.60;99.90;;;;;;6242246;22;20417;-85
2021/12/28 05:30:59;;;;;;;6.50;1.52;;;6.60;99.90;;;;;;6282373;22;20035;-84
2021/12/28 05:33:47;;;;;;;20.35;7.97;;;6.60;99.90;;;;;;6260162;22;20023;-84
2021/12/28 05:36:37;;;;;;;17.48;6.63;;;6.60;99.90;;;;;;6304433;22;20042;-85
2021/12/28 05:39:32;;;;;;;10.07;3.10;;;6.50;99.90;;;;;;6285180;22;20306;-88
2021/12/28 05:42:20;;;;;;;11.52;2.13;;;6.50;99.90;;;;;;6283733;22;20046;-87
2021/12/28 05:45:10;;;;;;;6.03;2.10;;;6.40;99.90;;;;;;6303483;22;20042;-86
2021/12/28 05:48:01;;;;;;;9.07;2.08;;;6.40;99.90;;;;;;6284562;22;20033;-85
2021/12/28 05:50:48;;;;;;;6.30;2.10;;;6.40;99.90;;;;;;6282592;22;20034;-82
2021/12/28 05:53:39;;;;;;;6.57;1.77;;;6.40;99.90;;;;;;6262401;22;20020;-86
2021/12/28 05:57:24;;;;;;;5.45;1.65;;;6.40;99.90;;;;;;6178146;23;20025;-83
2021/12/28 06:08:55;;;;;;;6.45;1.90;;;6.80;99.90;;;;;;6176662;23;20052;-82
2021/12/28 06:23:55;;;;;;;5.80;1.70;;;6.60;99.90;;;;;;6239443;23;20011;-82
2021/12/28 06:26:53;;;;;;;4.88;2.08;;;6.60;99.90;;;;;;6239183;23;20432;-82
2021/12/28 06:29:52;;;;;;;5.80;1.60;;;6.70;99.90;;;;;;6222178;23;20051;-85
2021/12/28 06:32:40;;;;;;;4.80;1.80;;;6.70;99.90;;;;;;6283873;22;20075;-86
2021/12/28 06:35:29;;;;;;;2.58;1.40;;;6.70;99.90;;;;;;6282625;22;20034;-85
2021/12/28 06:38:19;;;;;;;4.20;1.60;;;6.70;99.90;;;;;;6263886;22;20027;-85
2021/12/28 06:41:29;;;;;;;1.83;1.60;;;6.80;99.90;;;;;;6225193;23;20024;-85
2021/12/28 06:44:37;;;;;;;1.35;1.10;;;6.80;99.90;;;;;;6227367;23;20035;-87
2021/12/28 06:47:50;;;;;;;;;;;;;;;;;;;;;
2021/12/28 06:50:39;;;;;;;1.20;1.10;;;7.00;99.90;;;;;;6241401;23;20039;-83
2021/12/28 06:53:37;;;;;;;2.60;1.20;;;7.00;99.90;;;;;;6202667;23;20028;-85
2021/12/28 06:56:28;;;;;;;3.13;1.10;;;7.10;99.90;;;;;;6221403;23;20032;-83
2021/12/28 06:59:17;;;;;;;1.52;1.30;;;7.20;99.90;;;;;;6219962;23;20035;-83
2021/12/28 07:02:09;;;;;;;1.30;1.20;;;7.20;99.90;;;;;;6199377;23;20103;-82
2021/12/28 07:04:58;;;;;;;5.05;1.20;;;7.20;99.90;;;;;;6219807;23;20024;-84
2021/12/28 07:07:53;;;;;;;2.88;1.20;;;7.20;99.90;;;;;;6221399;23;20139;-81
2021/12/28 07:10:44;;;;;;;1.38;1.08;;;7.20;99.90;;;;;;6221665;23;20054;-82
2021/12/28 07:13:31;;;;;;;2.33;1.08;;;7.10;99.90;;;;;;6219118;23;20042;-82
2021/12/28 07:16:20;;;;;;;1.95;1.00;;;7.10;99.90;;;;;;6218382;22;20035;-84
2021/12/28 07:19:10;;;;;;;1.20;1.10;;;7.10;99.90;;;;;;6176240;23;20771;-82
2021/12/28 07:22:01;;;;;;;2.08;1.20;;;7.10;99.90;;;;;;6222966;23;20052;-83
2021/12/28 07:24:51;;;;;;;1.20;1.00;;;7.10;99.90;;;;;;6248822;22;20023;-84
2021/12/28 07:27:38;;;;;;;1.02;0.95;;;7.00;99.90;;;;;;6307317;22;20321;-81
2021/12/28 07:30:26;;;;;;;2.67;1.10;;;7.00;99.90;;;;;;6287907;22;20027;-81
2021/12/28 07:33:13;;;;;;;1.20;1.10;;;7.00;99.90;;;;;;6293184;22;20030;-83
2021/12/28 07:36:04;;;;;;;1.77;1.25;;;7.00;99.90;;;;;;6291452;22;20080;-81
2021/12/28 07:38:51;;;;;;;3.13;1.67;;;7.10;99.90;;;;;;6296453;22;20106;-80
2021/12/28 07:41:43;;;;;;;2.20;1.13;;;7.10;99.90;;;;;;6309217;22;20023;-81
2021/12/28 07:44:34;;;;;;;1.05;0.90;;;7.10;99.90;;;;;;6308408;22;20050;-83
2021/12/28 07:47:22;;;;;;;1.38;0.90;;;7.10;99.90;;;;;;6285249;22;20076;-84
2021/12/28 07:50:15;;;;;;;1.60;1.08;;;7.30;99.90;;;;;;6264587;22;20057;-84
2021/12/28 07:53:05;;;;;;;1.00;0.98;;;7.30;99.90;;;;;;6288088;22;20031;-83
2021/12/28 07:55:58;;;;;;;1.65;0.90;;;7.40;99.90;;;;;;6291993;22;20033;-82
2021/12/28 07:58:46;;;;;;;1.02;0.80;;;7.40;99.90;;;;;;6291663;22;20031;-82
2021/12/28 08:01:35;;;;;;;0.60;0.60;;;7.40;99.90;;;;;;6293276;22;20417;-81
2021/12/28 08:04:33;;;;;;;0.60;0.60;;;7.40;99.90;;;;;;6306894;22;20107;-82
2021/12/28 08:07:20;;;;;;;0.80;0.77;;;7.40;99.90;;;;;;6304897;22;20420;-82
2021/12/28 08:10:12;;;;;;;0.70;0.70;;;7.40;99.90;;;;;;6281626;22;20023;-84
2021/12/28 08:13:02;;;;;;;0.50;0.45;;;7.50;99.90;;;;;;6281108;22;20285;-85
2021/12/28 08:15:51;;;;;;;1.17;0.63;;;7.50;99.90;;;;;;6304078;22;20034;-82
2021/12/28 08:18:38;;;;;;;1.95;0.60;;;7.50;99.90;;;;;;6301836;22;20118;-82
2021/12/28 08:21:26;;;;;;;0.55;0.55;;;7.60;99.90;;;;;;6303608;22;20038;-84
2021/12/28 08:24:16;;;;;;;0.52;0.52;;;7.60;99.90;;;;;;6279867;22;20038;-83
2021/12/28 08:27:04;;;;;;;2.17;0.77;;;7.60;99.90;;;;;;6281895;22;20120;-84
2021/12/28 08:29:56;;;;;;;0.65;0.65;;;7.60;99.90;;;;;;6241746;22;20047;-82
2021/12/28 08:32:47;;;;;;;0.80;0.80;;;7.50;99.90;;;;;;6278390;22;20102;-82
2021/12/28 08:35:36;;;;;;;0.70;0.70;;;7.60;99.90;;;;;;6280075;22;20024;-82
2021/12/28 08:38:26;;;;;;;1.13;0.80;;;7.70;99.90;;;;;;6283649;22;20147;-82
2021/12/28 08:41:16;;;;;;;0.60;0.60;;;7.70;99.90;;;;;;6282061;22;20318;-82
2021/12/28 08:44:08;;;;;;;0.63;0.63;;;7.80;99.90;;;;;;6281578;22;20027;-82
2021/12/28 08:46:58;;;;;;;0.50;0.50;;;7.70;99.90;;;;;;6240893;22;20019;-82
2021/12/28 08:49:51;;;;;;;0.50;0.50;;;7.70;99.90;;;;;;6260980;22;20042;-85
2021/12/28 08:52:41;;;;;;;2.67;0.70;;;7.70;99.90;;;;;;6261077;22;20019;-84
2021/12/28 08:55:42;;;;;;;0.98;0.70;;;7.70;99.90;;;;;;6283290;22;20027;-82
2021/12/28 08:58:33;;;;;;;0.57;0.57;;;7.70;99.90;;;;;;6282403;22;20038;-83
2021/12/28 09:01:25;;;;;;;0.60;0.60;;;7.90;99.90;;;;;;6260988;22;20027;-79
2021/12/28 09:04:25;;;;;;;0.95;0.65;;;8.10;99.90;;;;;;6285453;22;20035;-81
2021/12/28 09:07:18;;;;;;;1.13;0.68;;;8.00;99.90;;;;;;6240228;22;20024;-81
2021/12/28 09:10:16;;;;;;;1.25;0.63;;;8.00;99.90;;;;;;6279918;22;20027;-83
2021/12/28 09:13:07;;;;;;;1.10;0.70;;;8.00;99.90;;;;;;6260019;22;20022;-84
2021/12/28 09:15:54;;;;;;;0.82;0.70;;;8.20;99.90;;;;;;6280597;22;20071;-84
2021/12/28 09:18:42;;;;;;;0.88;0.88;;;8.60;99.90;;;;;;6305505;22;20378;-84
2021/12/28 09:21:37;;;;;;;0.85;0.82;;;8.90;99.90;;;;;;6279273;22;20295;-83
2021/12/28 09:24:27;;;;;;;1.50;1.00;;;9.10;99.90;;;;;;6261080;22;20034;-82
2021/12/28 09:27:29;;;;;;;1.58;1.08;;;9.10;99.90;;;;;;6302402;22;20019;-84
2021/12/28 09:30:24;;;;;;;1.08;0.98;;;9.40;99.90;;;;;;6282269;22;20031;-86
2021/12/28 09:33:18;;;;;;;0.80;0.80;;;9.40;99.90;;;;;;6280811;22;20031;-84
2021/12/28 09:36:17;;;;;;;1.13;0.88;;;9.30;99.90;;;;;;6282257;22;20429;-86
2021/12/28 09:39:07;;;;;;;0.90;0.90;;;9.10;99.90;;;;;;6262769;22;20031;-85
2021/12/28 09:42:04;;;;;;;1.33;1.08;;;8.90;99.90;;;;;;6259113;22;20023;-84
2021/12/28 09:44:56;;;;;;;1.02;0.90;;;8.90;99.90;;;;;;6293800;22;20023;-85
2021/12/28 09:47:48;;;;;;;1.08;0.70;;;9.20;99.90;;;;;;6260458;22;20122;-84
2021/12/28 09:50:42;;;;;;;0.82;0.80;;;9.40;99.90;;;;;;6284167;22;20022;-85
2021/12/28 09:53:46;;;;;;;0.93;0.63;;;9.60;99.90;;;;;;6285688;22;20395;-85
2021/12/28 09:56:37;;;;;;;0.70;0.70;;;11.20;99.90;;;;;;6263531;22;20023;-85
2021/12/28 09:59:29;;;;;;;1.50;0.90;;;11.30;99.90;;;;;;6283917;22;20026;-86
2021/12/28 10:02:19;;;;;;;2.63;0.60;;;10.70;99.90;;;;;;6285600;22;20023;-85
2021/12/28 10:05:22;;;;;;;0.68;0.65;;;10.30;99.90;;;;;;6283425;22;20035;-85
2021/12/28 10:08:13;;;;;;;0.80;0.65;;;10.60;99.90;;;;;;6283901;22;20095;-83
2021/12/28 10:11:04;;;;;;;0.75;0.60;;;11.00;99.90;;;;;;6284647;22;20023;-83
2021/12/28 10:14:18;;;;;;;0.68;0.68;;;10.70;99.90;;;;;;6261954;22;20027;-85
2021/12/28 10:17:07;;;;;;;1.30;1.00;;;10.30;99.90;;;;;;6286362;22;20027;-83
2021/12/28 10:19:56;;;;;;;0.63;0.60;;;10.00;99.90;;;;;;6287353;22;20028;-85
2021/12/28 10:22:49;;;;;;;1.48;0.65;;;9.70;99.90;;;;;;6290658;22;20591;-83
2021/12/28 10:25:41;;;;;;;0.65;0.65;;;9.80;99.90;;;;;;6284813;22;20023;-83
2021/12/28 10:28:41;;;;;;;0.77;0.50;;;10.00;99.90;;;;;;6282100;22;20334;-84
2021/12/28 10:31:32;;;;;;;2.28;0.80;;;10.40;99.90;;;;;;6307594;22;20107;-82
2021/12/28 10:34:23;;;;;;;0.50;0.50;;;10.60;99.90;;;;;;6284543;22;20023;-84
2021/12/28 10:37:39;;;;;;;5.35;0.73;;;10.80;99.90;;;;;;6263991;22;20038;-84
2021/12/28 10:40:51;;;;;;;1.15;0.80;;;10.80;99.90;;;;;;6309732;22;20038;-82
2021/12/28 10:43:43;;;;;;;0.75;0.63;;;10.40;99.90;;;;;;6306553;22;20030;-83
2021/12/28 10:46:38;;;;;;;1.25;1.02;;;10.20;99.90;;;;;;6285888;22;20278;-84
2021/12/28 10:49:39;;;;;;;1.20;0.82;;;10.10;99.90;;;;;;6281560;22;20023;-83
2021/12/28 10:52:37;;;;;;;1.38;0.70;;;10.10;99.90;;;;;;6282006;22;20100;-85
2021/12/28 10:55:38;;;;;;;;;;;9.90;99.90;;;;;;6290523;22;20398;-83
2021/12/28 10:58:45;;;;;;;3.10;0.90;;;9.80;99.90;;;;;;6288316;22;20313;-85
2021/12/28 11:01:37;;;;;;;1.60;0.80;;;10.50;99.90;;;;;;6304175;22;20038;-82
2021/12/28 11:04:32;;;;;;;2.05;1.10;;;10.90;99.90;;;;;;6281868;22;20077;-84
2021/12/28 11:07:26;;;;;;;1.35;0.55;;;11.80;99.90;;;;;;6305540;22;20023;-85
2021/12/28 11:10:14;;;;;;;0.82;0.70;;;12.60;99.90;;;;;;6263423;22;20027;-85
2021/12/28 11:13:03;;;;;;;0.70;0.47;;;13.20;99.90;;;;;;6304940;22;20038;-84
2021/12/28 11:15:51;;;;;;;1.98;1.30;;;12.40;99.90;;;;;;6261631;22;20073;-86
2021/12/28 11:18:46;;;;;;;1.20;1.10;;;11.50;99.90;;;;;;6284503;22;20482;-87
2021/12/28 11:21:35;;;;;;;1.20;0.98;;;11.10;99.90;;;;;;6285747;22;20027;-82
2021/12/28 11:24:32;;;;;;;2.38;1.10;;;10.80;99.90;;;;;;6282602;22;20038;-82
2021/12/28 11:27:22;;;;;;;2.78;1.15;;;10.60;99.90;;;;;;6282066;22;20042;-84
2021/12/28 11:30:19;;;;;;;2.53;1.08;;;10.40;99.90;;;;;;6283194;22;20164;-83
2021/12/28 11:33:08;;;;;;;0.77;0.70;;;10.30;99.90;;;;;;6242017;22;20030;-82
2021/12/28 11:36:00;;;;;;;1.75;1.23;;;10.20;99.90;;;;;;6303199;22;20373;-82
2021/12/28 11:38:48;;;;;;;3.88;1.20;;;10.10;99.90;;;;;;6282922;22;20135;-82
2021/12/28 11:41:37;;;;;;;1.35;0.90;;;9.90;99.90;;;;;;6280853;22;20100;-86
2021/12/28 11:44:29;;;;;;;2.75;1.00;;;9.80;99.90;;;;;;6284017;22;20038;-84
2021/12/28 11:47:18;;;;;;;0.70;0.70;;;9.80;99.90;;;;;;6305799;22;20027;-84
2021/12/28 11:50:10;;;;;;;0.70;0.70;;;9.70;99.90;;;;;;6283882;22;20242;-82
2021/12/28 11:52:58;;;;;;;5.18;1.13;;;9.70;99.90;;;;;;6261803;22;20077;-84
2021/12/28 11:55:45;;;;;;;0.70;0.70;;;9.70;99.90;;;;;;6305638;22;20399;-83
2021/12/28 11:58:54;;;;;;;2.20;0.85;;;9.60;99.90;;;;;;6282286;22;20034;-84
2021/12/28 12:01:41;;;;;;;7.18;1.13;;;9.60;99.90;;;;;;6283131;22;20061;-84
2021/12/28 12:04:32;;;;;;;1.08;0.90;;;9.60;99.90;;;;;;6282374;22;20058;-84
2021/12/28 12:07:26;;;;;;;1.98;1.58;;;9.70;99.90;;;;;;6279955;22;20038;-85
2021/12/28 12:10:19;;;;;;;1.30;1.20;;;9.70;99.90;;;;;;6282524;22;20027;-83
2021/12/28 12:13:21;;;;;;;1.77;1.08;;;9.70;99.90;;;;;;6302358;22;20034;-85
2021/12/28 12:16:16;;;;;;;2.93;1.23;;;9.70;99.90;;;;;;6302340;22;20338;-87
2021/12/28 12:19:06;;;;;;;2.47;0.98;;;9.80;99.90;;;;;;6281882;22;20110;-86
2021/12/28 12:22:30;;;;;;;4.93;2.67;;;9.80;99.90;;;;;;6251622;22;20024;-85
2021/12/28 12:25:20;;;;;;;2.65;1.42;;;10.00;99.90;;;;;;6252284;22;20153;-85
2021/12/28 12:28:09;;;;;;;0.90;0.90;;;10.10;99.90;;;;;;6253104;22;20023;-85
2021/12/28 12:31:01;;;;;;;1.70;0.90;;;10.20;99.90;;;;;;6252271;22;20395;-85
2021/12/28 12:33:48;;;;;;;1.15;0.90;;;10.20;99.90;;;;;;6251702;22;20019;-86
2021/12/28 12:36:40;;;;;;;0.80;0.80;;;10.30;99.90;;;;;;6250871;22;20350;-84
2021/12/28 12:39:42;;;;;;;0.77;0.73;;;10.30;99.90;;;;;;6256354;22;20023;-83
2021/12/28 12:42:30;;;;;;;1.10;0.90;;;10.30;99.90;;;;;;6253726;22;20027;-84
2021/12/28 12:45:52;;;;;;;0.60;0.60;;;10.30;99.90;;;;;;6231973;22;20026;-83
2021/12/28 12:48:47;;;;;;;0.97;0.60;;;10.30;99.90;;;;;;6253045;22;20023;-82
2021/12/28 12:51:46;;;;;;;1.10;0.70;;;10.30;99.90;;;;;;6254046;22;20506;-87
2021/12/28 12:54:45;;;;;;;0.90;0.68;;;10.30;99.90;;;;;;6274641;22;20031;-85
2021/12/28 12:57:33;;;;;;;1.30;0.80;;;10.20;99.90;;;;;;6251124;22;20089;-86
2021/12/28 13:00:20;;;;;;;0.85;0.82;;;10.20;99.90;;;;;;6230422;22;20023;-85
2021/12/28 13:03:08;;;;;;;0.80;0.80;;;10.20;99.90;;;;;;6253301;22;20043;-85
2021/12/28 13:05:58;;;;;;;1.38;1.05;;;10.20;99.90;;;;;;6209954;22;20028;-85
2021/12/28 13:09:09;;;;;;;1.67;1.00;;;10.20;99.90;;;;;;6249775;22;20307;-85
2021/12/28 13:12:10;;;;;;;0.70;0.70;;;10.20;99.90;;;;;;6250541;22;20035;-85
2021/12/28 13:14:57;;;;;;;2.90;0.98;;;10.20;99.90;;;;;;6242419;22;20304;-83
2021/12/28 13:17:49;;;;;;;1.23;1.08;;;10.20;99.90;;;;;;6250063;22;20083;-84
2021/12/28 13:20:37;;;;;;;1.73;1.05;;;10.20;99.90;;;;;;6267144;22;20027;-86
2021/12/28 13:23:24;;;;;;;2.28;1.50;;;10.20;99.90;;;;;;6304978;22;20121;-85
2021/12/28 13:26:17;;;;;;;1.38;1.10;;;10.20;99.90;;;;;;6305106;22;20372;-85
2021/12/28 13:29:13;;;;;;;2.35;1.00;;;10.30;99.90;;;;;;6263545;22;20027;-83
2021/12/28 13:32:16;;;;;;;3.33;1.30;;;10.30;99.90;;;;;;6245592;22;20027;-86
2021/12/28 13:35:24;;;;;;;2.20;1.02;;;10.20;99.90;;;;;;6286043;22;20081;-87
2021/12/28 13:38:17;;;;;;;1.88;0.77;;;10.20;99.90;;;;;;6284325;22;20062;-81
2021/12/28 13:41:07;;;;;;;3.47;1.30;;;10.30;99.90;;;;;;6286364;22;20130;-85
2021/12/28 13:44:02;;;;;;;4.05;1.20;;;10.10;99.90;;;;;;6263128;22;20041;-85
2021/12/28 13:46:51;;;;;;;3.10;1.30;;;9.90;99.90;;;;;;6283418;22;20023;-85
2021/12/28 13:49:40;;;;;;;5.68;1.40;;;9.70;99.90;;;;;;6263384;22;20035;-85
2021/12/28 13:52:57;;;;;;;2.30;1.48;;;9.60;99.90;;;;;;6286460;22;20023;-87
2021/12/28 13:56:11;;;;;;;1.80;1.20;;;9.50;99.90;;;;;;6283802;22;20023;-86
2021/12/28 13:59:01;;;;;;;4.28;1.45;;;9.50;99.90;;;;;;6306403;22;20042;-86
2021/12/28 14:01:52;;;;;;;2.15;0.88;;;9.40;99.90;;;;;;6283573;22;20077;-86
2021/12/28 14:04:40;;;;;;;1.35;0.90;;;9.40;99.90;;;;;;6284152;22;20027;-84
2021/12/28 14:07:28;;;;;;;2.67;1.40;;;9.30;99.90;;;;;;6282903;22;20026;-85
2021/12/28 14:10:16;;;;;;;2.45;1.27;;;9.30;99.90;;;;;;6287411;22;20027;-87
2021/12/28 14:13:23;;;;;;;1.75;0.90;;;9.30;99.90;;;;;;6306846;22;20361;-85
2021/12/28 14:16:24;;;;;;;3.08;0.90;;;9.40;99.90;;;;;;6290470;22;20462;-86
2021/12/28 14:19:16;;;;;;;2.72;1.00;;;9.40;99.90;;;;;;6266327;22;20103;-84
2021/12/28 14:22:16;;;;;;;1.95;1.10;;;9.40;99.90;;;;;;6261208;22;20046;-86
2021/12/28 14:25:06;;;;;;;2.47;0.90;;;9.40;99.90;;;;;;6307966;22;20339;-84
2021/12/28 14:27:58;;;;;;;3.30;1.30;;;9.50;99.90;;;;;;6246465;22;20375;-85
2021/12/28 14:30:49;;;;;;;2.17;1.20;;;9.50;99.90;;;;;;6304056;22;20377;-85
2021/12/28 14:33:48;;;;;;;2.35;1.17;;;9.60;99.90;;;;;;6285261;22;20024;-85
2021/12/28 14:36:38;;;;;;;1.90;1.10;;;9.50;99.90;;;;;;6284232;22;20023;-88
2021/12/28 14:39:44;;;;;;;1.42;1.00;;;9.50;99.90;;;;;;6285662;22;20438;-88
2021/12/28 14:42:58;;;;;;;2.28;1.33;;;9.50;99.90;;;;;;6286594;22;20019;-89
2021/12/28 14:45:54;;;;;;;4.88;1.30;;;9.40;99.90;;;;;;6303809;22;20574;-85
2021/12/28 14:48:42;;;;;;;2.15;1.35;;;9.30;99.90;;;;;;6284383;22;20019;-83
2021/12/28 14:51:32;;;;;;;5.00;1.20;;;9.30;99.90;;;;;;6284109;22;20057;-86
2021/12/28 14:54:24;;;;;;;3.17;1.40;;;9.20;99.90;;;;;;6284311;22;20033;-85
2021/12/28 14:57:14;;;;;;;4.00;1.90;;;9.20;99.90;;;;;;6260454;22;20027;-84
2021/12/28 15:00:16;;;;;;;5.20;1.50;;;9.20;99.90;;;;;;6282926;22;20104;-84
2021/12/28 15:03:16;;;;;;;4.72;1.30;;;9.10;99.90;;;;;;6302444;22;20310;-82
2021/12/28 15:06:05;;;;;;;1.52;1.15;;;9.10;99.90;;;;;;6262148;22;20047;-85
2021/12/28 15:09:00;;;;;;;2.28;1.27;;;9.10;99.90;;;;;;6280349;22;20070;-85
2021/12/28 15:11:48;;;;;;;4.47;1.20;;;9.20;99.90;;;;;;6281027;22;20410;-82
2021/12/28 15:14:48;;;;;;;5.18;1.33;;;9.20;99.90;;;;;;6304436;22;20023;-85
2021/12/28 15:17:39;;;;;;;2.13;1.15;;;9.10;99.90;;;;;;6287572;22;20445;-87
2021/12/28 15:20:32;;;;;;;5.43;1.20;;;9.10;99.90;;;;;;6285163;22;20023;-85
2021/12/28 15:23:24;;;;;;;3.03;0.90;;;9.00;99.90;;;;;;6288342;22;20027;-88
2021/12/28 15:26:25;;;;;;;2.88;0.85;;;8.70;99.90;;;;;;6272112;22;20166;-88
2021/12/28 15:29:17;;;;;;;2.53;1.20;;;8.40;99.90;;;;;;6271105;22;20019;-89